No1 Tokuyama — JK5318 — position and weather

sailwx.info

Track history (hours):
 
Tides and Currents Weather Stations Pressure Air Temp Water Temp Dewpoint Dewpoint Depression Visibility Wind Speed Wind Dir Waves Ship Positions

No1 Tokuyama

Last reported at 2014-Oct-20 11:28 UTC. Time now 2014-Oct-21 05:32 UTC.
Position N 34°05' E 134°48'.

Length 110 m; draft 6 m.

Type: Cargo ship. MMSI: 431400487.

Date/timePositionNaut miles runAvg speedWind from/ knotsBaromVisibWave heightAir tempDewpointWater temp
2014-Oct-20 11:28N 34°05' E 134°48'  
2014-Oct-18 02:05N 34°07' E 132°23'713.0
2014-Oct-18 01:33N 34°14' E 132°22'8 7.7
2014-Oct-18 00:33N 34°21' E 132°26'0 0.0
2014-Oct-17 23:33N 34°21' E 132°26'0 0.0
2014-Oct-17 22:33N 34°21' E 132°26'5 5.1
2014-Oct-17 21:34N 34°17' E 132°23'9 9.1
2014-Oct-17 20:33N 34°07' E 132°23'80 2.4
2014-Oct-16 10:33N 34°02' E 130°46'1413.9
2014-Oct-16 09:31N 33°58' E 130°30'1313.4
2014-Oct-16 08:33N 33°48' E 130°19'1010.3
2014-Oct-16 07:33N 33°38' E 130°21'3 2.8
2014-Oct-16 06:33N 33°37' E 130°24'0 0.0
2014-Oct-16 05:33N 33°37' E 130°24'0 0.1
2014-Oct-16 04:33N 33°37' E 130°24'0 0.0
2014-Oct-16 03:33N 33°37' E 130°24'0 0.1
2014-Oct-16 02:33N 33°37' E 130°24'0 0.0
2014-Oct-16 01:33N 33°37' E 130°24'0 0.0
2014-Oct-16 00:33N 33°37' E 130°24'0 0.0
2014-Oct-15 23:33N 33°37' E 130°24'0 0.0
2014-Oct-15 22:33N 33°37' E 130°24'3 3.3
2014-Oct-15 21:33N 33°38' E 130°20'0 0.0
2014-Oct-15 20:22N 33°38' E 130°20'0 0.0
2014-Oct-15 19:31N 33°38' E 130°20'4 3.6
2014-Oct-15 18:32N 33°40' E 130°17'1111.7
2014-Oct-15 17:33N 33°51' E 130°20'1111.1
2014-Oct-15 16:33N 33°59' E 130°29'  
2014-Oct-12 06:33N 34°34' E 134°49'1211.8
2014-Oct-12 05:33N 34°36' E 135°03'1413.9
2014-Oct-12 04:33N 34°38' E 135°20'6 5.2
2014-Oct-12 03:29N 34°39' E 135°27'0 0.0
2014-Oct-12 02:29N 34°39' E 135°27'0 0.0
2014-Oct-12 01:29N 34°39' E 135°27'0 0.0
2014-Oct-12 00:29N 34°39' E 135°27'0 0.0
2014-Oct-11 23:29N 34°39' E 135°27'0 0.0
2014-Oct-11 22:24N 34°39' E 135°27'4 4.8
2014-Oct-11 21:33N 34°37' E 135°22'1 0.3
2014-Oct-11 19:13N 34°37' E 135°22'0 0.0
2014-Oct-11 18:31N 34°37' E 135°22'0 0.0
2014-Oct-11 17:31N 34°37' E 135°22'0 0.0
2014-Oct-11 16:25N 34°37' E 135°22'0 0.1
2014-Oct-11 15:25N 34°37' E 135°22'0 0.0
2014-Oct-11 14:31N 34°37' E 135°22'5 5.3
2014-Oct-11 13:33N 34°36' E 135°16'1211.8
2014-Oct-11 12:33N 34°37' E 135°01'1010.5
2014-Oct-11 11:34N 34°38' E 134°49'111 8.5
2014-Oct-10 22:24N 33°58' E 132°43'  
Track history (hours):
 
Tides and Currents Weather Stations Pressure Air Temp Water Temp Dewpoint Dewpoint Depression Visibility Wind Speed Wind Dir Waves Ship Positions

No1 Tokuyama

Last reported at 2014-Oct-20 11:28 UTC. Time now 2014-Oct-21 05:32 UTC.
Position N 34°05' E 134°48'.

Length 110 m; draft 6 m.

Type: Cargo ship. MMSI: 431400487.

Date/timePositionNaut miles runAvg speedWind from/ knotsBaromVisibWave heightAir tempDewpointWater temp
2014-Oct-20 11:28N 34°05' E 134°48'  
2014-Oct-18 02:05N 34°07' E 132°23'713.0
2014-Oct-18 01:33N 34°14' E 132°22'8 7.7
2014-Oct-18 00:33N 34°21' E 132°26'0 0.0
2014-Oct-17 23:33N 34°21' E 132°26'0 0.0
2014-Oct-17 22:33N 34°21' E 132°26'5 5.1
2014-Oct-17 21:34N 34°17' E 132°23'9 9.1
2014-Oct-17 20:33N 34°07' E 132°23'80 2.4
2014-Oct-16 10:33N 34°02' E 130°46'1413.9
2014-Oct-16 09:31N 33°58' E 130°30'1313.4
2014-Oct-16 08:33N 33°48' E 130°19'1010.3
2014-Oct-16 07:33N 33°38' E 130°21'3 2.8
2014-Oct-16 06:33N 33°37' E 130°24'0 0.0
2014-Oct-16 05:33N 33°37' E 130°24'0 0.1
2014-Oct-16 04:33N 33°37' E 130°24'0 0.0
2014-Oct-16 03:33N 33°37' E 130°24'0 0.1
2014-Oct-16 02:33N 33°37' E 130°24'0 0.0
2014-Oct-16 01:33N 33°37' E 130°24'0 0.0
2014-Oct-16 00:33N 33°37' E 130°24'0 0.0
2014-Oct-15 23:33N 33°37' E 130°24'0 0.0
2014-Oct-15 22:33N 33°37' E 130°24'3 3.3
2014-Oct-15 21:33N 33°38' E 130°20'0 0.0
2014-Oct-15 20:22N 33°38' E 130°20'0 0.0
2014-Oct-15 19:31N 33°38' E 130°20'4 3.6
2014-Oct-15 18:32N 33°40' E 130°17'1111.7
2014-Oct-15 17:33N 33°51' E 130°20'1111.1
2014-Oct-15 16:33N 33°59' E 130°29'  
2014-Oct-12 06:33N 34°34' E 134°49'1211.8
2014-Oct-12 05:33N 34°36' E 135°03'1413.9
2014-Oct-12 04:33N 34°38' E 135°20'6 5.2
2014-Oct-12 03:29N 34°39' E 135°27'0 0.0
2014-Oct-12 02:29N 34°39' E 135°27'0 0.0
2014-Oct-12 01:29N 34°39' E 135°27'0 0.0
2014-Oct-12 00:29N 34°39' E 135°27'0 0.0
2014-Oct-11 23:29N 34°39' E 135°27'0 0.0
2014-Oct-11 22:24N 34°39' E 135°27'4 4.8
2014-Oct-11 21:33N 34°37' E 135°22'1 0.3
2014-Oct-11 19:13N 34°37' E 135°22'0 0.0
2014-Oct-11 18:31N 34°37' E 135°22'0 0.0
2014-Oct-11 17:31N 34°37' E 135°22'0 0.0
2014-Oct-11 16:25N 34°37' E 135°22'0 0.1
2014-Oct-11 15:25N 34°37' E 135°22'0 0.0
2014-Oct-11 14:31N 34°37' E 135°22'5 5.3
2014-Oct-11 13:33N 34°36' E 135°16'1211.8
2014-Oct-11 12:33N 34°37' E 135°01'1010.5
2014-Oct-11 11:34N 34°38' E 134°49'111 8.5
2014-Oct-10 22:24N 33°58' E 132°43'  

Dump ship's entire track history